sensor_id;sensor_type;location;lat;lon;timestamp;pressure;altitude;pressure_sealevel;temperature;humidity
20942;BME280;10630;53.734;10.282;2022-07-29T00:01:22;101688.25;;;20.90;53.56
20942;BME280;10630;53.734;10.282;2022-07-29T00:03:51;101425.72;;;19.20;53.53
20942;BME280;10630;53.734;10.282;2022-07-29T00:06:31;101686.56;;;21.02;53.83
20942;BME280;10630;53.734;10.282;2022-07-29T00:09:03;101694.53;;;20.83;53.44
20942;BME280;10630;53.734;10.282;2022-07-29T00:11:53;101688.28;;;20.69;53.48
20942;BME280;10630;53.734;10.282;2022-07-29T00:14:23;101690.56;;;20.66;53.90
20942;BME280;10630;53.734;10.282;2022-07-29T00:16:55;101638.84;;;20.29;54.12
20942;BME280;10630;53.734;10.282;2022-07-29T00:19:28;101687.50;;;20.42;53.93
20942;BME280;10630;53.734;10.282;2022-07-29T00:22:20;101689.34;;;20.35;54.20
20942;BME280;10630;53.734;10.282;2022-07-29T00:24:50;101706.22;;;20.23;54.23
20942;BME280;10630;53.734;10.282;2022-07-29T00:27:17;101681.69;;;20.18;54.72
20942;BME280;10630;53.734;10.282;2022-07-29T00:29:48;101495.56;;;18.81;54.62
20942;BME280;10630;53.734;10.282;2022-07-29T00:32:19;101664.19;;;19.87;54.23
20942;BME280;10630;53.734;10.282;2022-07-29T00:34:49;101594.03;;;19.19;54.49
20942;BME280;10630;53.734;10.282;2022-07-29T00:37:42;101699.06;;;19.82;55.10
20942;BME280;10630;53.734;10.282;2022-07-29T00:40:10;101715.25;;;19.82;54.96
20942;BME280;10630;53.734;10.282;2022-07-29T00:42:53;101647.03;;;19.46;55.66
20942;BME280;10630;53.734;10.282;2022-07-29T00:45:23;101678.28;;;19.76;56.15
20942;BME280;10630;53.734;10.282;2022-07-29T00:47:53;101671.22;;;19.82;56.11
20942;BME280;10630;53.734;10.282;2022-07-29T00:50:29;101677.69;;;19.94;55.64
20942;BME280;10630;53.734;10.282;2022-07-29T00:52:59;101672.47;;;19.79;55.44
20942;BME280;10630;53.734;10.282;2022-07-29T00:55:28;101629.38;;;19.44;55.25
20942;BME280;10630;53.734;10.282;2022-07-29T00:57:56;101674.94;;;19.74;54.77
20942;BME280;10630;53.734;10.282;2022-07-29T01:00:26;101519.06;;;18.45;55.03
20942;BME280;10630;53.734;10.282;2022-07-29T01:02:58;101657.38;;;19.23;55.24
20942;BME280;10630;53.734;10.282;2022-07-29T01:05:31;101673.19;;;19.39;55.65
20942;BME280;10630;53.734;10.282;2022-07-29T01:08:32;101578.03;;;18.69;55.75
20942;BME280;10630;53.734;10.282;2022-07-29T01:11:04;101667.34;;;19.36;55.97
20942;BME280;10630;53.734;10.282;2022-07-29T01:13:34;101576.81;;;18.71;55.82
20942;BME280;10630;53.734;10.282;2022-07-29T01:16:20;101668.22;;;19.43;55.59
20942;BME280;10630;53.734;10.282;2022-07-29T01:19:22;101539.94;;;18.37;55.98
20942;BME280;10630;53.734;10.282;2022-07-29T01:22:21;101515.38;;;18.18;56.63
20942;BME280;10630;53.734;10.282;2022-07-29T01:25:17;101653.69;;;19.44;56.41
20942;BME280;10630;53.734;10.282;2022-07-29T01:31:20;101553.22;;;18.80;56.50
20942;BME280;10630;53.734;10.282;2022-07-29T01:34:03;101653.09;;;19.62;56.83
20942;BME280;10630;53.734;10.282;2022-07-29T01:36:40;101636.88;;;19.49;56.39
20942;BME280;10630;53.734;10.282;2022-07-29T01:39:26;101320.72;;;17.54;56.03
20942;BME280;10630;53.734;10.282;2022-07-29T01:42:20;101606.34;;;19.35;56.18
20942;BME280;10630;53.734;10.282;2022-07-29T01:48:48;101637.97;;;19.68;55.90
20942;BME280;10630;53.734;10.282;2022-07-29T01:51:25;101632.16;;;19.71;55.98
20942;BME280;10630;53.734;10.282;2022-07-29T01:54:26;101233.72;;;17.05;56.20
20942;BME280;10630;53.734;10.282;2022-07-29T01:57:34;101594.25;;;19.24;56.28
20942;BME280;10630;53.734;10.282;2022-07-29T02:00:14;101461.31;;;18.68;55.81
20942;BME280;10630;53.734;10.282;2022-07-29T02:02:47;101623.63;;;19.67;55.98
20942;BME280;10630;53.734;10.282;2022-07-29T02:05:21;101628.81;;;19.82;55.67
20942;BME280;10630;53.734;10.282;2022-07-29T02:07:52;101622.19;;;19.78;55.56
20942;BME280;10630;53.734;10.282;2022-07-29T02:10:26;101648.16;;;19.79;55.77
20942;BME280;10630;53.734;10.282;2022-07-29T02:12:57;101602.84;;;19.54;56.33
20942;BME280;10630;53.734;10.282;2022-07-29T02:15:32;101625.09;;;19.70;56.31
20942;BME280;10630;53.734;10.282;2022-07-29T02:18:16;101569.59;;;19.47;56.36
20942;BME280;10630;53.734;10.282;2022-07-29T02:20:48;101610.13;;;19.74;56.28
20942;BME280;10630;53.734;10.282;2022-07-29T02:23:22;101608.88;;;19.83;55.76
20942;BME280;10630;53.734;10.282;2022-07-29T02:26:23;101603.53;;;19.90;55.69
20942;BME280;10630;53.734;10.282;2022-07-29T02:28:56;101619.25;;;19.66;55.47
20942;BME280;10630;53.734;10.282;2022-07-29T02:31:34;101250.09;;;17.52;55.66
20942;BME280;10630;53.734;10.282;2022-07-29T02:34:08;101468.81;;;18.86;56.19
20942;BME280;10630;53.734;10.282;2022-07-29T02:36:41;101586.66;;;19.54;55.80
20942;BME280;10630;53.734;10.282;2022-07-29T02:39:18;101499.59;;;19.12;55.47
20942;BME280;10630;53.734;10.282;2022-07-29T02:41:50;101599.31;;;19.74;55.79
20942;BME280;10630;53.734;10.282;2022-07-29T02:44:20;101599.56;;;19.79;55.76
20942;BME280;10630;53.734;10.282;2022-07-29T02:46:51;101594.56;;;19.76;55.58
20942;BME280;10630;53.734;10.282;2022-07-29T02:52:41;101551.13;;;19.44;55.88
20942;BME280;10630;53.734;10.282;2022-07-29T02:55:30;101592.28;;;19.80;56.02
20942;BME280;10630;53.734;10.282;2022-07-29T02:58:14;101597.66;;;19.66;56.16
20942;BME280;10630;53.734;10.282;2022-07-29T03:00:48;101412.28;;;18.51;55.31
20942;BME280;10630;53.734;10.282;2022-07-29T03:03:20;101584.78;;;19.75;56.33
20942;BME280;10630;53.734;10.282;2022-07-29T03:05:55;101589.78;;;19.71;56.05
20942;BME280;10630;53.734;10.282;2022-07-29T03:08:26;101412.09;;;18.46;56.84
20942;BME280;10630;53.734;10.282;2022-07-29T03:10:59;101588.09;;;19.57;56.29
20942;BME280;10630;53.734;10.282;2022-07-29T03:13:29;101597.22;;;19.56;56.75
20942;BME280;10630;53.734;10.282;2022-07-29T03:16:00;101374.56;;;18.51;55.78
20942;BME280;10630;53.734;10.282;2022-07-29T03:18:41;101550.94;;;19.45;55.74
20942;BME280;10630;53.734;10.282;2022-07-29T03:21:11;101391.13;;;18.41;56.54
20942;BME280;10630;53.734;10.282;2022-07-29T03:23:47;101576.88;;;19.67;56.78
20942;BME280;10630;53.734;10.282;2022-07-29T03:26:18;101576.06;;;19.59;56.50
20942;BME280;10630;53.734;10.282;2022-07-29T03:28:54;101569.81;;;19.66;56.17
20942;BME280;10630;53.734;10.282;2022-07-29T03:31:23;101573.97;;;19.61;56.29
20942;BME280;10630;53.734;10.282;2022-07-29T03:34:10;101576.69;;;19.61;56.48
20942;BME280;10630;53.734;10.282;2022-07-29T03:36:46;101585.63;;;19.69;55.42
20942;BME280;10630;53.734;10.282;2022-07-29T03:39:18;101599.50;;;19.52;55.98
20942;BME280;10630;53.734;10.282;2022-07-29T03:41:53;101539.09;;;19.53;55.57
20942;BME280;10630;53.734;10.282;2022-07-29T03:44:25;101583.13;;;19.74;55.54
20942;BME280;10630;53.734;10.282;2022-07-29T03:46:57;101149.63;;;17.18;55.23
20942;BME280;10630;53.734;10.282;2022-07-29T03:49:30;101579.84;;;19.85;55.58
20942;BME280;10630;53.734;10.282;2022-07-29T03:52:07;101584.38;;;19.65;56.30
20942;BME280;10630;53.734;10.282;2022-07-29T03:54:49;101584.78;;;19.75;55.62
20942;BME280;10630;53.734;10.282;2022-07-29T03:57:20;101578.34;;;19.63;55.71
20942;BME280;10630;53.734;10.282;2022-07-29T03:59:52;101576.47;;;19.63;56.38
20942;BME280;10630;53.734;10.282;2022-07-29T04:02:25;101580.63;;;19.72;55.56
20942;BME280;10630;53.734;10.282;2022-07-29T04:05:15;101574.81;;;19.82;55.58
20942;BME280;10630;53.734;10.282;2022-07-29T04:07:51;101510.81;;;19.09;56.42
20942;BME280;10630;53.734;10.282;2022-07-29T04:10:22;101382.13;;;18.14;57.48
20942;BME280;10630;53.734;10.282;2022-07-29T04:13:06;101573.16;;;19.61;57.50
20942;BME280;10630;53.734;10.282;2022-07-29T04:15:37;101403.53;;;18.35;57.95
20942;BME280;10630;53.734;10.282;2022-07-29T04:18:07;101576.06;;;19.59;57.78
20942;BME280;10630;53.734;10.282;2022-07-29T04:20:40;101576.88;;;19.53;58.42
20942;BME280;10630;53.734;10.282;2022-07-29T04:23:18;101465.34;;;18.99;58.15
20942;BME280;10630;53.734;10.282;2022-07-29T04:25:48;101569.00;;;19.72;58.00
20942;BME280;10630;53.734;10.282;2022-07-29T04:28:18;101563.59;;;19.65;58.15
20942;BME280;10630;53.734;10.282;2022-07-29T04:31:09;101556.31;;;19.66;58.49
20942;BME280;10630;53.734;10.282;2022-07-29T04:33:42;101562.81;;;19.91;57.94
20942;BME280;10630;53.734;10.282;2022-07-29T04:36:10;101567.78;;;19.95;58.30
20942;BME280;10630;53.734;10.282;2022-07-29T04:38:58;101569.03;;;20.05;57.74
20942;BME280;10630;53.734;10.282;2022-07-29T04:41:33;101423.00;;;19.00;57.94
20942;BME280;10630;53.734;10.282;2022-07-29T04:44:04;101525.38;;;19.75;58.81
20942;BME280;10630;53.734;10.282;2022-07-29T04:46:42;101573.59;;;20.05;58.59
20942;BME280;10630;53.734;10.282;2022-07-29T04:49:29;101566.97;;;20.01;59.71
20942;BME280;10630;53.734;10.282;2022-07-29T04:52:05;101524.75;;;19.80;59.39
20942;BME280;10630;53.734;10.282;2022-07-29T04:54:34;101528.31;;;19.93;59.49
20942;BME280;10630;53.734;10.282;2022-07-29T04:57:04;101571.94;;;20.17;59.62
20942;BME280;10630;53.734;10.282;2022-07-29T04:59:45;101560.91;;;20.26;58.98
20942;BME280;10630;53.734;10.282;2022-07-29T05:02:14;101548.22;;;20.19;59.33
20942;BME280;10630;53.734;10.282;2022-07-29T05:04:56;101565.84;;;20.42;59.09
20942;BME280;10630;53.734;10.282;2022-07-29T05:07:29;101533.06;;;20.18;58.77
20942;BME280;10630;53.734;10.282;2022-07-29T05:09:59;101575.53;;;20.70;58.72
20942;BME280;10630;53.734;10.282;2022-07-29T05:12:29;101249.78;;;18.71;59.59
20942;BME280;10630;53.734;10.282;2022-07-29T05:14:57;101386.03;;;19.60;59.83
20942;BME280;10630;53.734;10.282;2022-07-29T05:17:31;101253.72;;;18.81;59.59
20942;BME280;10630;53.734;10.282;2022-07-29T05:20:00;101487.03;;;20.38;58.90
20942;BME280;10630;53.734;10.282;2022-07-29T05:22:36;101406.16;;;19.78;59.35
20942;BME280;10630;53.734;10.282;2022-07-29T05:25:07;101558.88;;;20.73;59.29
20942;BME280;10630;53.734;10.282;2022-07-29T05:27:40;101573.66;;;21.16;59.80
20942;BME280;10630;53.734;10.282;2022-07-29T05:30:12;101598.41;;;21.19;59.06
20942;BME280;10630;53.734;10.282;2022-07-29T05:32:45;101571.81;;;21.48;58.91
20942;BME280;10630;53.734;10.282;2022-07-29T05:35:40;101551.81;;;21.17;59.18
20942;BME280;10630;53.734;10.282;2022-07-29T05:38:13;101536.56;;;21.23;59.14
20942;BME280;10630;53.734;10.282;2022-07-29T05:40:48;101580.50;;;21.64;58.73
20942;BME280;10630;53.734;10.282;2022-07-29T05:43:22;101425.31;;;20.74;58.30
20942;BME280;10630;53.734;10.282;2022-07-29T05:46:12;101586.03;;;21.76;56.18
20942;BME280;10630;53.734;10.282;2022-07-29T05:48:53;101537.81;;;21.53;56.18
20942;BME280;10630;53.734;10.282;2022-07-29T05:51:26;100999.44;;;18.29;55.39
20942;BME280;10630;53.734;10.282;2022-07-29T05:54:02;101491.28;;;21.88;55.69
20942;BME280;10630;53.734;10.282;2022-07-29T05:56:33;101581.97;;;22.29;55.36
20942;BME280;10630;53.734;10.282;2022-07-29T05:59:04;101584.69;;;22.29;54.47
20942;BME280;10630;53.734;10.282;2022-07-29T06:01:49;101533.47;;;22.02;53.92
20942;BME280;10630;53.734;10.282;2022-07-29T06:07:44;101582.00;;;22.85;52.86
20942;BME280;10630;53.734;10.282;2022-07-29T06:10:17;101412.84;;;22.11;52.51
20942;BME280;10630;53.734;10.282;2022-07-29T06:12:52;101584.34;;;23.30;52.41
20942;BME280;10630;53.734;10.282;2022-07-29T06:15:25;101354.63;;;21.65;52.22
20942;BME280;10630;53.734;10.282;2022-07-29T06:25:53;101466.56;;;23.13;49.87
20942;BME280;10630;53.734;10.282;2022-07-29T06:31:51;101457.44;;;23.37;50.46
20942;BME280;10630;53.734;10.282;2022-07-29T06:34:32;101557.69;;;24.05;49.77
20942;BME280;10630;53.734;10.282;2022-07-29T06:37:13;101587.69;;;24.22;49.91
20942;BME280;10630;53.734;10.282;2022-07-29T06:39:45;101468.31;;;23.61;49.64
20942;BME280;10630;53.734;10.282;2022-07-29T06:42:18;101583.84;;;24.71;48.98
20942;BME280;10630;53.734;10.282;2022-07-29T06:44:53;101510.25;;;24.13;48.93
20942;BME280;10630;53.734;10.282;2022-07-29T06:47:23;101576.84;;;25.04;47.83
20942;BME280;10630;53.734;10.282;2022-07-29T06:49:56;101572.72;;;24.60;48.55
20942;BME280;10630;53.734;10.282;2022-07-29T06:52:26;101500.56;;;24.17;48.30
20942;BME280;10630;53.734;10.282;2022-07-29T06:54:59;101173.94;;;22.86;47.45
20942;BME280;10630;53.734;10.282;2022-07-29T06:57:26;101380.81;;;24.41;46.66
20942;BME280;10630;53.734;10.282;2022-07-29T06:59:56;101294.22;;;24.03;46.77
20942;BME280;10630;53.734;10.282;2022-07-29T07:02:30;101506.50;;;25.29;46.62
20942;BME280;10630;53.734;10.282;2022-07-29T07:05:00;101061.03;;;22.56;46.45
20942;BME280;10630;53.734;10.282;2022-07-29T07:07:29;101562.84;;;25.75;46.02
20942;BME280;10630;53.734;10.282;2022-07-29T07:10:08;101359.38;;;24.90;45.80
20942;BME280;10630;53.734;10.282;2022-07-29T07:12:38;101576.97;;;25.72;45.94
20942;BME280;10630;53.734;10.282;2022-07-29T07:15:11;101556.66;;;25.80;46.30
20942;BME280;10630;53.734;10.282;2022-07-29T07:17:38;101568.13;;;25.65;46.17
20942;BME280;10630;53.734;10.282;2022-07-29T07:23:16;101563.25;;;26.01;45.94
20942;BME280;10630;53.734;10.282;2022-07-29T07:25:49;101566.34;;;26.27;45.50
20942;BME280;10630;53.734;10.282;2022-07-29T07:28:16;101558.94;;;26.05;45.62
20942;BME280;10630;53.734;10.282;2022-07-29T07:30:51;101469.09;;;25.76;45.26
20942;BME280;10630;53.734;10.282;2022-07-29T07:33:19;101568.94;;;26.38;44.93
20942;BME280;10630;53.734;10.282;2022-07-29T07:36:00;101243.75;;;24.42;44.67
20942;BME280;10630;53.734;10.282;2022-07-29T07:38:33;101534.31;;;26.61;44.13
20942;BME280;10630;53.734;10.282;2022-07-29T07:41:05;101529.22;;;26.26;44.23
20942;BME280;10630;53.734;10.282;2022-07-29T07:43:34;101271.47;;;24.73;45.44
20942;BME280;10630;53.734;10.282;2022-07-29T07:46:04;101550.63;;;26.34;45.13
20942;BME280;10630;53.734;10.282;2022-07-29T07:48:35;101371.16;;;25.47;44.60
20942;BME280;10630;53.734;10.282;2022-07-29T07:51:06;101548.16;;;26.54;44.58
20942;BME280;10630;53.734;10.282;2022-07-29T07:53:41;101544.47;;;26.66;44.75
20942;BME280;10630;53.734;10.282;2022-07-29T07:56:19;101073.44;;;23.67;44.44
20942;BME280;10630;53.734;10.282;2022-07-29T07:58:51;101493.63;;;26.37;44.37
20942;BME280;10630;53.734;10.282;2022-07-29T08:01:20;101416.34;;;25.87;44.24
20942;BME280;10630;53.734;10.282;2022-07-29T08:03:53;101547.19;;;26.66;44.35
20942;BME280;10630;53.734;10.282;2022-07-29T08:06:23;101548.53;;;26.63;43.84
20942;BME280;10630;53.734;10.282;2022-07-29T08:08:54;101547.97;;;26.83;44.00
20942;BME280;10630;53.734;10.282;2022-07-29T08:11:57;101541.78;;;27.21;43.92
20942;BME280;10630;53.734;10.282;2022-07-29T08:14:27;101541.19;;;27.46;43.31
20942;BME280;10630;53.734;10.282;2022-07-29T08:16:57;101431.34;;;26.79;43.61
20942;BME280;10630;53.734;10.282;2022-07-29T08:19:36;101542.28;;;27.83;42.87
20942;BME280;10630;53.734;10.282;2022-07-29T08:22:05;101530.09;;;27.63;42.68
20942;BME280;10630;53.734;10.282;2022-07-29T08:25:00;101532.59;;;27.64;43.05
20942;BME280;10630;53.734;10.282;2022-07-29T08:27:31;101460.72;;;27.31;43.53
20942;BME280;10630;53.734;10.282;2022-07-29T08:30:09;101534.56;;;27.74;42.26
20942;BME280;10630;53.734;10.282;2022-07-29T08:32:37;101545.91;;;27.99;42.43
20942;BME280;10630;53.734;10.282;2022-07-29T08:35:22;101538.16;;;28.23;42.43
20942;BME280;10630;53.734;10.282;2022-07-29T08:37:54;101274.19;;;25.73;42.87
20942;BME280;10630;53.734;10.282;2022-07-29T08:40:24;101543.63;;;27.80;43.22
20942;BME280;10630;53.734;10.282;2022-07-29T08:43:08;101472.91;;;27.51;42.79
20942;BME280;10630;53.734;10.282;2022-07-29T08:45:48;101544.50;;;28.39;42.14
20942;BME280;10630;53.734;10.282;2022-07-29T08:48:22;101499.97;;;28.59;42.15
20942;BME280;10630;53.734;10.282;2022-07-29T08:50:57;101556.41;;;28.70;42.02
20942;BME280;10630;53.734;10.282;2022-07-29T08:53:26;101430.88;;;27.57;41.85
20942;BME280;10630;53.734;10.282;2022-07-29T08:55:58;101541.09;;;28.74;41.62
20942;BME280;10630;53.734;10.282;2022-07-29T08:58:34;101537.56;;;28.79;41.03
20942;BME280;10630;53.734;10.282;2022-07-29T09:01:16;101492.13;;;29.30;40.90
20942;BME280;10630;53.734;10.282;2022-07-29T09:04:18;101411.56;;;28.69;39.84
20942;BME280;10630;53.734;10.282;2022-07-29T09:06:48;101527.44;;;29.83;41.02
20942;BME280;10630;53.734;10.282;2022-07-29T09:09:18;101530.72;;;29.95;39.90
20942;BME280;10630;53.734;10.282;2022-07-29T09:11:50;101238.00;;;28.70;38.42
20942;BME280;10630;53.734;10.282;2022-07-29T09:14:19;101522.91;;;30.34;37.82
20942;BME280;10630;53.734;10.282;2022-07-29T09:17:00;101486.75;;;30.16;38.37
20942;BME280;10630;53.734;10.282;2022-07-29T09:19:34;101510.88;;;30.24;37.84
20942;BME280;10630;53.734;10.282;2022-07-29T09:22:40;101496.66;;;30.67;37.60
20942;BME280;10630;53.734;10.282;2022-07-29T09:25:11;101307.94;;;29.28;38.09
20942;BME280;10630;53.734;10.282;2022-07-29T09:27:49;101316.22;;;29.88;36.79
20942;BME280;10630;53.734;10.282;2022-07-29T09:30:34;101070.56;;;28.21;36.56
20942;BME280;10630;53.734;10.282;2022-07-29T09:33:03;101512.63;;;31.05;37.08
20942;BME280;10630;53.734;10.282;2022-07-29T09:36:08;101462.19;;;30.45;37.00
20942;BME280;10630;53.734;10.282;2022-07-29T09:38:37;101306.06;;;29.28;37.07
20942;BME280;10630;53.734;10.282;2022-07-29T09:41:09;101451.41;;;30.59;37.50
20942;BME280;10630;53.734;10.282;2022-07-29T09:44:18;101371.66;;;30.75;36.49
20942;BME280;10630;53.734;10.282;2022-07-29T09:47:03;101063.63;;;28.60;36.74
20942;BME280;10630;53.734;10.282;2022-07-29T09:55:28;101334.38;;;30.69;35.22
20942;BME280;10630;53.734;10.282;2022-07-29T09:58:23;100959.63;;;28.55;33.93
20942;BME280;10630;53.734;10.282;2022-07-29T10:01:08;101483.75;;;32.77;33.92
20942;BME280;10630;53.734;10.282;2022-07-29T10:03:54;101026.97;;;29.06;34.81
20942;BME280;10630;53.734;10.282;2022-07-29T10:07:07;101063.56;;;29.20;33.79
20942;BME280;10630;53.734;10.282;2022-07-29T10:09:56;101395.16;;;31.94;33.80
20942;BME280;10630;53.734;10.282;2022-07-29T10:12:57;101413.75;;;32.02;34.54
20942;BME280;10630;53.734;10.282;2022-07-29T10:15:36;101510.09;;;32.45;33.93
20942;BME280;10630;53.734;10.282;2022-07-29T10:18:17;101499.47;;;32.58;33.43
20942;BME280;10630;53.734;10.282;2022-07-29T10:20:49;101292.13;;;31.18;33.88
20942;BME280;10630;53.734;10.282;2022-07-29T10:26:08;101500.59;;;33.89;32.46
20942;BME280;10630;53.734;10.282;2022-07-29T10:28:43;101123.75;;;31.07;32.66
20942;BME280;10630;53.734;10.282;2022-07-29T10:31:49;101365.66;;;32.38;32.52
20942;BME280;10630;53.734;10.282;2022-07-29T10:44:24;101453.34;;;33.76;31.45
20942;BME280;10630;53.734;10.282;2022-07-29T10:47:06;101189.09;;;31.92;31.71
20942;BME280;10630;53.734;10.282;2022-07-29T10:50:01;101111.84;;;31.17;31.65
20942;BME280;10630;53.734;10.282;2022-07-29T10:52:57;101467.22;;;32.39;32.83
20942;BME280;10630;53.734;10.282;2022-07-29T10:55:40;101235.97;;;31.68;31.97
20942;BME280;10630;53.734;10.282;2022-07-29T10:58:27;101109.50;;;30.38;32.70
20942;BME280;10630;53.734;10.282;2022-07-29T11:01:33;101014.13;;;30.24;32.05
20942;BME280;10630;53.734;10.282;2022-07-29T11:04:07;101465.81;;;33.74;31.37
20942;BME280;10630;53.734;10.282;2022-07-29T11:07:08;101458.13;;;33.29;32.27
20942;BME280;10630;53.734;10.282;2022-07-29T11:09:39;101458.63;;;33.31;32.55
20942;BME280;10630;53.734;10.282;2022-07-29T11:15:20;101353.25;;;33.34;31.77
20942;BME280;10630;53.734;10.282;2022-07-29T11:18:03;101316.44;;;33.25;32.25
20942;BME280;10630;53.734;10.282;2022-07-29T11:20:51;101377.50;;;32.71;32.17
20942;BME280;10630;53.734;10.282;2022-07-29T11:23:34;101379.16;;;33.75;31.67
20942;BME280;10630;53.734;10.282;2022-07-29T11:26:18;101437.53;;;34.92;30.76
20942;BME280;10630;53.734;10.282;2022-07-29T11:29:22;101324.53;;;34.59;30.88
20942;BME280;10630;53.734;10.282;2022-07-29T11:32:18;101448.22;;;33.84;31.65
20942;BME280;10630;53.734;10.282;2022-07-29T11:35:22;101447.97;;;34.36;32.21
20942;BME280;10630;53.734;10.282;2022-07-29T11:38:43;101115.44;;;31.70;32.64
20942;BME280;10630;53.734;10.282;2022-07-29T11:41:34;101090.16;;;30.48;34.52
20942;BME280;10630;53.734;10.282;2022-07-29T11:44:11;101293.34;;;31.75;34.45
20942;BME280;10630;53.734;10.282;2022-07-29T11:46:51;101391.00;;;32.54;34.53
20942;BME280;10630;53.734;10.282;2022-07-29T11:49:35;101011.63;;;30.04;34.25
20942;BME280;10630;53.734;10.282;2022-07-29T11:52:50;101041.13;;;30.41;34.20
20942;BME280;10630;53.734;10.282;2022-07-29T11:56:01;100883.00;;;28.10;36.20
20942;BME280;10630;53.734;10.282;2022-07-29T11:58:36;100819.03;;;27.95;36.24
20942;BME280;10630;53.734;10.282;2022-07-29T12:01:12;101216.81;;;31.38;35.21
20942;BME280;10630;53.734;10.282;2022-07-29T12:04:13;101085.47;;;30.24;35.09
20942;BME280;10630;53.734;10.282;2022-07-29T12:07:06;101431.03;;;32.65;35.28
20942;BME280;10630;53.734;10.282;2022-07-29T12:10:30;101227.84;;;30.66;36.35
20942;BME280;10630;53.734;10.282;2022-07-29T12:13:08;100923.94;;;28.76;37.04
20942;BME280;10630;53.734;10.282;2022-07-29T12:15:59;101424.06;;;31.91;37.18
20942;BME280;10630;53.734;10.282;2022-07-29T12:18:37;101290.13;;;31.24;37.25
20942;BME280;10630;53.734;10.282;2022-07-29T12:21:49;100997.13;;;29.04;37.02
20942;BME280;10630;53.734;10.282;2022-07-29T12:36:10;101432.69;;;30.67;39.04
20942;BME280;10630;53.734;10.282;2022-07-29T12:39:23;101438.25;;;31.25;38.78
20942;BME280;10630;53.734;10.282;2022-07-29T12:42:32;101297.31;;;29.92;39.09
20942;BME280;10630;53.734;10.282;2022-07-29T12:45:46;100875.25;;;27.46;39.23
20942;BME280;10630;53.734;10.282;2022-07-29T12:48:49;101434.00;;;31.14;39.03
20942;BME280;10630;53.734;10.282;2022-07-29T12:51:38;101009.59;;;28.05;39.35
20942;BME280;10630;53.734;10.282;2022-07-29T12:54:25;100833.47;;;26.53;40.32
20942;BME280;10630;53.734;10.282;2022-07-29T12:56:59;101226.06;;;29.76;39.70
20942;BME280;10630;53.734;10.282;2022-07-29T12:59:38;101442.94;;;31.25;38.78
20942;BME280;10630;53.734;10.282;2022-07-29T13:02:28;100926.59;;;27.60;39.01
20942;BME280;10630;53.734;10.282;2022-07-29T13:05:16;101089.97;;;28.46;39.19
20942;BME280;10630;53.734;10.282;2022-07-29T13:08:13;100949.03;;;27.15;39.48
20942;BME280;10630;53.734;10.282;2022-07-29T13:11:05;101135.34;;;28.57;39.46
20942;BME280;10630;53.734;10.282;2022-07-29T13:13:58;100939.09;;;27.87;39.21
20942;BME280;10630;53.734;10.282;2022-07-29T13:16:33;101447.47;;;31.69;38.42
20942;BME280;10630;53.734;10.282;2022-07-29T13:19:15;101438.09;;;31.41;38.45
20942;BME280;10630;53.734;10.282;2022-07-29T13:21:57;100891.75;;;28.07;38.44
20942;BME280;10630;53.734;10.282;2022-07-29T13:24:33;100914.06;;;28.80;37.57
20942;BME280;10630;53.734;10.282;2022-07-29T13:27:29;101433.06;;;32.40;37.54
20942;BME280;10630;53.734;10.282;2022-07-29T13:30:28;101421.03;;;31.93;37.45
20942;BME280;10630;53.734;10.282;2022-07-29T13:33:19;101423.97;;;31.77;38.29
20942;BME280;10630;53.734;10.282;2022-07-29T13:35:50;100872.13;;;28.39;38.10
20942;BME280;10630;53.734;10.282;2022-07-29T13:38:37;100819.00;;;27.09;39.23
20942;BME280;10630;53.734;10.282;2022-07-29T13:41:10;101374.69;;;30.34;38.95
20942;BME280;10630;53.734;10.282;2022-07-29T13:43:54;100880.75;;;27.00;40.00
20942;BME280;10630;53.734;10.282;2022-07-29T13:46:42;101429.28;;;30.35;40.21
20942;BME280;10630;53.734;10.282;2022-07-29T13:50:27;100895.19;;;27.31;40.04
20942;BME280;10630;53.734;10.282;2022-07-29T13:57:33;100909.03;;;26.42;41.50
20942;BME280;10630;53.734;10.282;2022-07-29T14:00:56;100884.50;;;26.52;41.26
20942;BME280;10630;53.734;10.282;2022-07-29T14:09:07;101077.16;;;28.96;40.13
20942;BME280;10630;53.734;10.282;2022-07-29T14:11:59;101195.59;;;30.18;39.77
20942;BME280;10630;53.734;10.282;2022-07-29T14:14:30;101073.69;;;29.25;39.61
20942;BME280;10630;53.734;10.282;2022-07-29T14:17:19;101086.22;;;28.92;39.74
20942;BME280;10630;53.734;10.282;2022-07-29T14:19:46;101405.66;;;31.14;40.01
20942;BME280;10630;53.734;10.282;2022-07-29T14:22:14;101405.72;;;31.38;39.47
20942;BME280;10630;53.734;10.282;2022-07-29T14:25:13;101403.28;;;31.02;39.56
20942;BME280;10630;53.734;10.282;2022-07-29T14:28:36;101401.03;;;30.35;40.30
20942;BME280;10630;53.734;10.282;2022-07-29T14:31:17;100866.28;;;27.10;40.37
20942;BME280;10630;53.734;10.282;2022-07-29T14:49:01;101387.34;;;31.33;39.91
20942;BME280;10630;53.734;10.282;2022-07-29T14:52:03;101023.28;;;28.86;40.12
20942;BME280;10630;53.734;10.282;2022-07-29T14:54:56;100866.50;;;27.49;40.63
20942;BME280;10630;53.734;10.282;2022-07-29T14:57:50;101108.75;;;29.28;40.93
20942;BME280;10630;53.734;10.282;2022-07-29T15:00:27;101080.81;;;29.26;40.92
20942;BME280;10630;53.734;10.282;2022-07-29T15:03:05;101059.22;;;28.64;40.83
20942;BME280;10630;53.734;10.282;2022-07-29T15:05:42;101217.88;;;30.11;41.28
20942;BME280;10630;53.734;10.282;2022-07-29T15:08:24;100817.03;;;27.56;40.33
20942;BME280;10630;53.734;10.282;2022-07-29T15:11:20;101385.41;;;30.70;41.18
20942;BME280;10630;53.734;10.282;2022-07-29T15:13:50;101382.66;;;30.70;41.80